Stevens Point, WI

2:14 AM CDT on August 17, 2017 (GMT -0500)
Our Office | | Change Station

Elev 1086 ft 44.51 °N, 89.58 °W | Updated 38 seconds ago

Overcast
Overcast
65.3 °F
Feels Like 65.3 °F
N
2.2
Wind Variable Wind from ESE

Today
High -- | Low -- °F
--% Chance of Precip.
Yesterday
High -- | Low -- °F
Precip. -- in
Pressure 29.72 in
Visibility 4.0 miles
Clouds Overcast 400 ft
Dew Point 65 °F
Humidity 99%
Rainfall 0.00 in
Snow Depth Not available.
6:03 AM 7:59 PM
Waning Crescent, 25% visible
METAR KSTE 170655Z AUTO 11007KT 4SM BR OVC004 17/17 A2972 RMK AO2 T01720172
Pressure 29.72 in
Visibility 4.0 miles
Clouds Overcast 400 ft
Dew Point 65 °F
Humidity 99%
Rainfall 0.00 in
Snow Depth Not available.
6:03 AM 7:59 PM
Waning Crescent, 25% visible
METAR KSTE 170655Z AUTO 11007KT 4SM BR OVC004 17/17 A2972 RMK AO2 T01720172

Get Severe Weather Alerts

Thanks for signing up!

Be on the lookout for a verification email in your inbox.

You'll start receiving the daily forecast at 6 AM.

×

10-Day Weather Forecast

Almanac

Astronomy

Aug. 17, 2017 Rise Set
Actual Time
Civil Twilight
Nautical Twilight
Astronomical Twilight
Moon
Length of Visible Light
Length of Day
Tomorrow will be .
, % of the Moon is Illuminated

Today's Extremes

State Highs State Lows

Community

WunderPhotos

Category 6

Welcome to Category 6. This is the collective home for Weather Underground's featured writeups by Dr. Jeff Masters (right), Bob Henson (left), Chris Burt, and other regular contributors.

Nearby

Air Quality

  Air Quality AQ Index Pollutant
Not available.

Snow Depth

Station Depth Elevation

Earthquake Activity

City Distance Mag. Time & Date
Minimum magnitude displayed is 2.5.

Coastal Water Temperatures

Place Temperature

Stations

Nearby Weather Stations

Station Location Temp. Windchill Dew Point Humidity Wind Precip. Elev Updated Type
                   

Watches & Warnings

There are currently no watches in effect.